Time;durP1;ratioP1;P1;durP2;ratioP2;P2;SDS_P1;SDS_P2;PMS_P1;PMS_P2;Temp;Humidity;BMP_temperature;BMP_pressure;BME280_temperature;BME280_humidity;BME280_pressure;Samples;Min_cycle;Max_cycle;Signal;HPM_P1;HPM_P2
2020/12/21 00:00:06;;;;;;;13.37;8.63;;;;;;;;;;5058300;28;20424;-85
2020/12/21 00:02:32;;;;;;;11.93;8.80;;;;;;;;;;5075826;28;20449;-86
2020/12/21 00:04:58;;;;;;;14.13;8.63;;;;;;;;;;5076132;28;20722;-85
2020/12/21 00:07:24;;;;;;;12.40;8.00;;;;;;;;;;5079096;28;20428;-85
2020/12/21 00:09:50;;;;;;;14.70;9.07;;;;;;;;;;5078486;28;20944;-85
2020/12/21 00:12:16;;;;;;;12.10;7.73;;;;;;;;;;5082098;28;20392;-85
2020/12/21 00:14:42;;;;;;;11.00;7.73;;;;;;;;;;5080562;28;20832;-85
2020/12/21 00:17:08;;;;;;;15.07;10.63;;;;;;;;;;5079774;28;20417;-85
2020/12/21 00:19:34;;;;;;;13.90;9.57;;;;;;;;;;5079543;28;20801;-85
2020/12/21 00:22:00;;;;;;;13.30;8.57;;;;;;;;;;5079087;28;20405;-84
2020/12/21 00:24:26;;;;;;;10.37;7.57;;;;;;;;;;5074187;28;20463;-84
2020/12/21 00:26:52;;;;;;;11.67;8.20;;;;;;;;;;5097463;28;20424;-85
2020/12/21 00:29:19;;;;;;;13.53;7.73;;;;;;;;;;5096608;28;20432;-85
2020/12/21 00:31:45;;;;;;;10.77;8.30;;;;;;;;;;5062652;28;20429;-84
2020/12/21 00:34:11;;;;;;;11.40;8.10;;;;;;;;;;5073991;28;20437;-84
2020/12/21 00:36:40;;;;;;;11.30;8.20;;;;;;;;;;5074550;28;20500;-84
2020/12/21 00:39:07;;;;;;;9.27;6.60;;;;;;;;;;5074472;28;20472;-85
2020/12/21 00:41:33;;;;;;;10.70;8.43;;;;;;;;;;5056887;28;20520;-85
2020/12/21 00:43:59;;;;;;;16.20;7.77;;;;;;;;;;5078665;28;20527;-85
2020/12/21 00:46:26;;;;;;;12.27;7.87;;;;;;;;;;5076981;28;20398;-84
2020/12/21 00:48:53;;;;;;;10.27;7.10;;;;;;;;;;5071495;28;20458;-85
2020/12/21 00:51:19;;;;;;;11.03;7.20;;;;;;;;;;5057937;28;20442;-85
2020/12/21 00:53:45;;;;;;;8.67;7.70;;;;;;;;;;5063357;28;20429;-85
2020/12/21 00:56:11;;;;;;;9.83;8.53;;;;;;;;;;5076124;28;20782;-85
2020/12/21 00:58:40;;;;;;;10.27;7.83;;;;;;;;;;5093585;28;20459;-83
2020/12/21 01:01:07;;;;;;;10.90;7.10;;;;;;;;;;5097216;28;20415;-84
2020/12/21 01:03:34;;;;;;;8.97;6.87;;;;;;;;;;5093738;28;20440;-85
2020/12/21 01:06:00;;;;;;;12.17;7.30;;;;;;;;;;5084656;28;20472;-83
2020/12/21 01:08:26;;;;;;;13.63;7.10;;;;;;;;;;5082550;28;20444;-85
2020/12/21 01:10:52;;;;;;;8.93;6.43;;;;;;;;;;5065537;28;20406;-85
2020/12/21 01:13:18;;;;;;;13.43;8.00;;;;;;;;;;5066792;28;20406;-86
2020/12/21 01:15:44;;;;;;;12.33;7.97;;;;;;;;;;5084638;28;20427;-86
2020/12/21 01:18:10;;;;;;;9.53;7.67;;;;;;;;;;5084214;28;20452;-85
2020/12/21 01:20:36;;;;;;;12.67;8.20;;;;;;;;;;5084860;28;20420;-85
2020/12/21 01:23:03;;;;;;;16.33;7.83;;;;;;;;;;5092867;28;20385;-85
2020/12/21 01:25:29;;;;;;;10.07;7.50;;;;;;;;;;5098595;28;20442;-84
2020/12/21 01:27:55;;;;;;;12.30;8.47;;;;;;;;;;5079845;22;20510;-78
2020/12/21 01:30:21;;;;;;;8.40;6.70;;;;;;;;;;5104161;28;20507;-80
2020/12/21 01:32:47;;;;;;;13.40;7.10;;;;;;;;;;5108949;28;20403;-80
2020/12/21 01:35:13;;;;;;;11.70;7.17;;;;;;;;;;5107527;28;20444;-80
2020/12/21 01:37:39;;;;;;;14.07;7.37;;;;;;;;;;5108654;28;20455;-80
2020/12/21 01:40:06;;;;;;;13.77;7.70;;;;;;;;;;5107860;28;20489;-80
2020/12/21 01:42:32;;;;;;;10.17;7.30;;;;;;;;;;5109340;28;20424;-79
2020/12/21 01:44:58;;;;;;;11.70;8.13;;;;;;;;;;5118417;28;20522;-79
2020/12/21 01:47:24;;;;;;;11.63;7.73;;;;;;;;;;5118788;28;20400;-79
2020/12/21 01:49:50;;;;;;;11.73;8.00;;;;;;;;;;5116920;28;20423;-79
2020/12/21 01:52:17;;;;;;;10.77;7.80;;;;;;;;;;5118680;28;20401;-80
2020/12/21 01:54:43;;;;;;;9.60;6.63;;;;;;;;;;5116647;28;20463;-81
2020/12/21 01:57:09;;;;;;;14.43;7.73;;;;;;;;;;5116404;28;20480;-81
2020/12/21 01:59:36;;;;;;;11.70;8.10;;;;;;;;;;5116398;28;20452;-81
2020/12/21 02:02:02;;;;;;;10.87;7.70;;;;;;;;;;5116898;28;20491;-78
2020/12/21 02:04:28;;;;;;;12.50;8.87;;;;;;;;;;5113553;28;20436;-78
2020/12/21 02:06:55;;;;;;;11.90;7.60;;;;;;;;;;5118310;28;20407;-79
2020/12/21 02:09:21;;;;;;;11.13;7.20;;;;;;;;;;5117459;28;20428;-77
2020/12/21 02:11:47;;;;;;;11.83;7.73;;;;;;;;;;5118927;28;20384;-78
2020/12/21 02:14:13;;;;;;;11.77;7.90;;;;;;;;;;5116995;28;20432;-77
2020/12/21 02:16:39;;;;;;;14.43;8.00;;;;;;;;;;5118355;28;20423;-77
2020/12/21 02:19:05;;;;;;;14.70;8.70;;;;;;;;;;5116073;28;20440;-78
2020/12/21 02:21:31;;;;;;;12.80;8.87;;;;;;;;;;5117952;28;20392;-79
2020/12/21 02:23:57;;;;;;;11.60;7.20;;;;;;;;;;5117928;28;20436;-78
2020/12/21 02:26:23;;;;;;;9.13;6.73;;;;;;;;;;5115886;28;20467;-77
2020/12/21 02:28:59;;;;;;;12.03;7.63;;;;;;;;;;5114749;28;20462;-77
2020/12/21 02:31:25;;;;;;;15.33;8.73;;;;;;;;;;5106522;28;20435;-77
2020/12/21 02:33:51;;;;;;;10.30;7.90;;;;;;;;;;5118092;28;20436;-79
2020/12/21 02:36:17;;;;;;;9.83;7.70;;;;;;;;;;5107814;28;20432;-79
2020/12/21 02:38:44;;;;;;;9.30;7.90;;;;;;;;;;5106364;28;20463;-79
2020/12/21 02:41:13;;;;;;;10.63;7.07;;;;;;;;;;5105163;28;20443;-79
2020/12/21 02:43:39;;;;;;;11.00;7.30;;;;;;;;;;5106987;28;20935;-79
2020/12/21 02:46:13;;;;;;;11.33;7.57;;;;;;;;;;5105751;28;20423;-79
2020/12/21 02:48:48;;;;;;;11.90;6.40;;;;;;;;;;5107632;28;20995;-79
2020/12/21 02:51:17;;;;;;;12.50;7.77;;;;;;;;;;5105450;28;20481;-79
2020/12/21 02:53:44;;;;;;;11.57;7.53;;;;;;;;;;5106724;28;20428;-79
2020/12/21 02:56:11;;;;;;;10.83;7.30;;;;;;;;;;5106654;28;20492;-80
2020/12/21 02:58:36;;;;;;;11.83;8.10;;;;;;;;;;5106230;28;21015;-80
2020/12/21 03:01:03;;;;;;;11.43;7.23;;;;;;;;;;5105953;28;20428;-80
2020/12/21 03:03:29;;;;;;;10.63;7.23;;;;;;;;;;5107015;28;20567;-78
2020/12/21 03:05:55;;;;;;;12.03;8.27;;;;;;;;;;5109172;28;20432;-79
2020/12/21 03:08:21;;;;;;;13.10;8.60;;;;;;;;;;5107876;28;20456;-80
2020/12/21 03:10:47;;;;;;;10.20;7.20;;;;;;;;;;5093937;28;20467;-80
2020/12/21 03:13:19;;;;;;;11.43;8.40;;;;;;;;;;5087532;28;20401;-79
2020/12/21 03:15:45;;;;;;;12.57;8.57;;;;;;;;;;5099373;28;20439;-80
2020/12/21 03:18:11;;;;;;;12.73;7.77;;;;;;;;;;5106070;28;20462;-80
2020/12/21 03:20:37;;;;;;;9.80;7.50;;;;;;;;;;5103336;28;20420;-80
2020/12/21 03:23:03;;;;;;;10.73;7.80;;;;;;;;;;5105812;28;20407;-80
2020/12/21 03:25:29;;;;;;;16.93;8.40;;;;;;;;;;5104975;28;20444;-80
2020/12/21 03:27:55;;;;;;;11.27;7.27;;;;;;;;;;5100143;28;20848;-79
2020/12/21 03:30:21;;;;;;;10.20;6.83;;;;;;;;;;5083712;28;20954;-80
2020/12/21 03:32:47;;;;;;;9.53;6.73;;;;;;;;;;5104733;28;20392;-80
2020/12/21 03:35:13;;;;;;;11.03;7.33;;;;;;;;;;5085881;28;20440;-80
2020/12/21 03:37:39;;;;;;;9.70;7.80;;;;;;;;;;5104197;28;20459;-80
2020/12/21 03:40:06;;;;;;;9.60;6.67;;;;;;;;;;5104885;28;20766;-80
2020/12/21 03:42:32;;;;;;;12.80;7.70;;;;;;;;;;5102990;28;20424;-79
2020/12/21 03:44:58;;;;;;;8.13;6.73;;;;;;;;;;5086618;28;20525;-80
2020/12/21 03:47:24;;;;;;;8.40;7.30;;;;;;;;;;5105008;28;20918;-80
2020/12/21 03:49:50;;;;;;;11.30;8.07;;;;;;;;;;5105570;28;20397;-80
2020/12/21 03:52:16;;;;;;;10.47;7.57;;;;;;;;;;5106064;28;20403;-80
2020/12/21 03:54:42;;;;;;;12.00;7.10;;;;;;;;;;5104905;28;20434;-79
2020/12/21 03:57:08;;;;;;;13.23;8.30;;;;;;;;;;5104911;28;20430;-80
2020/12/21 03:59:34;;;;;;;10.40;7.60;;;;;;;;;;5104900;28;20940;-78
2020/12/21 04:02:00;;;;;;;12.83;9.50;;;;;;;;;;5105087;28;20420;-80
2020/12/21 04:04:26;;;;;;;11.83;7.83;;;;;;;;;;5100669;28;20448;-80
2020/12/21 04:06:52;;;;;;;13.47;8.10;;;;;;;;;;5103776;28;20428;-80
2020/12/21 04:09:18;;;;;;;10.73;7.50;;;;;;;;;;5105551;28;20409;-80
2020/12/21 04:11:44;;;;;;;9.90;6.87;;;;;;;;;;5104237;28;20477;-79
2020/12/21 04:14:11;;;;;;;10.93;7.30;;;;;;;;;;5105379;28;20423;-80
2020/12/21 04:16:37;;;;;;;9.27;7.10;;;;;;;;;;5105040;28;20439;-80
2020/12/21 04:19:03;;;;;;;15.97;8.80;;;;;;;;;;5105167;28;20455;-80
2020/12/21 04:21:29;;;;;;;16.03;8.87;;;;;;;;;;5104386;28;20430;-80
2020/12/21 04:23:55;;;;;;;13.60;8.47;;;;;;;;;;5104537;28;20420;-80
2020/12/21 04:26:21;;;;;;;12.13;8.23;;;;;;;;;;5102702;28;20511;-80
2020/12/21 04:28:47;;;;;;;13.47;8.10;;;;;;;;;;5097533;28;20480;-79
2020/12/21 04:31:13;;;;;;;9.23;7.40;;;;;;;;;;5098623;28;20436;-80
2020/12/21 04:33:39;;;;;;;12.13;7.80;;;;;;;;;;5104518;28;20420;-80
2020/12/21 04:36:12;;;;;;;13.47;7.30;;;;;;;;;;5105348;28;20497;-79
2020/12/21 04:38:41;;;;;;;11.83;7.80;;;;;;;;;;5105437;28;20447;-79
2020/12/21 04:41:08;;;;;;;9.73;6.47;;;;;;;;;;5101822;28;20426;-79
2020/12/21 04:43:34;;;;;;;14.10;8.00;;;;;;;;;;5105512;28;20900;-80
2020/12/21 04:46:01;;;;;;;11.33;7.57;;;;;;;;;;5105282;28;20963;-80
2020/12/21 04:48:29;;;;;;;12.63;8.53;;;;;;;;;;5105300;28;20408;-80
2020/12/21 04:50:55;;;;;;;11.13;7.97;;;;;;;;;;5105919;28;20428;-79
2020/12/21 04:53:21;;;;;;;10.67;8.20;;;;;;;;;;5106045;28;20514;-78
2020/12/21 04:55:48;;;;;;;13.40;9.27;;;;;;;;;;5104126;28;20458;-79
2020/12/21 04:58:15;;;;;;;11.33;8.73;;;;;;;;;;5106136;28;20447;-79
2020/12/21 05:00:41;;;;;;;11.20;8.80;;;;;;;;;;5105268;28;20420;-79
2020/12/21 05:03:07;;;;;;;12.40;8.33;;;;;;;;;;5106782;28;20396;-79
2020/12/21 05:05:38;;;;;;;11.57;8.80;;;;;;;;;;5102696;28;20435;-78
2020/12/21 05:08:10;;;;;;;11.63;7.77;;;;;;;;;;5105032;28;20410;-80
2020/12/21 05:10:37;;;;;;;9.43;7.30;;;;;;;;;;5103586;28;20404;-81
2020/12/21 05:13:04;;;;;;;12.80;9.03;;;;;;;;;;5083699;28;20401;-78
2020/12/21 05:15:30;;;;;;;12.87;8.97;;;;;;;;;;5082951;28;20451;-78
2020/12/21 05:18:22;;;;;;;13.23;9.10;;;;;;;;;;5103030;28;20455;-78
2020/12/21 05:20:54;;;;;;;11.90;8.30;;;;;;;;;;5103174;28;20412;-80
2020/12/21 05:23:20;;;;;;;14.53;8.97;;;;;;;;;;5104398;28;20946;-80
2020/12/21 05:25:57;;;;;;;15.20;7.93;;;;;;;;;;5103858;28;20424;-79
2020/12/21 05:28:26;;;;;;;11.50;8.47;;;;;;;;;;5103804;28;20757;-80
2020/12/21 05:30:53;;;;;;;12.20;8.93;;;;;;;;;;5100142;28;20424;-80
2020/12/21 05:33:19;;;;;;;11.53;8.27;;;;;;;;;;5100095;28;20451;-80
2020/12/21 05:35:47;;;;;;;13.37;7.87;;;;;;;;;;5102271;28;20400;-79
2020/12/21 05:38:20;;;;;;;10.60;8.47;;;;;;;;;;5101736;28;20978;-80
2020/12/21 05:40:46;;;;;;;11.80;8.33;;;;;;;;;;5100983;28;20404;-80
2020/12/21 05:43:22;;;;;;;9.00;7.97;;;;;;;;;;5102272;28;20424;-80
2020/12/21 05:45:48;;;;;;;11.20;7.50;;;;;;;;;;5083690;28;20407;-80
2020/12/21 05:48:14;;;;;;;8.83;6.90;;;;;;;;;;5101552;28;20412;-81
2020/12/21 05:50:41;;;;;;;13.27;8.20;;;;;;;;;;5105571;28;20453;-81
2020/12/21 05:53:08;;;;;;;12.47;8.40;;;;;;;;;;5106281;28;20423;-81
2020/12/21 05:55:34;;;;;;;13.43;8.73;;;;;;;;;;5106265;28;20403;-81
2020/12/21 05:58:01;;;;;;;17.63;8.40;;;;;;;;;;5106034;28;20464;-81
2020/12/21 06:00:27;;;;;;;15.33;8.40;;;;;;;;;;5106763;28;20392;-81
2020/12/21 06:02:55;;;;;;;11.23;7.70;;;;;;;;;;5105794;28;20444;-80
2020/12/21 06:05:28;;;;;;;12.90;8.17;;;;;;;;;;5106708;28;20511;-79
2020/12/21 06:08:01;;;;;;;13.13;8.70;;;;;;;;;;5106647;28;20432;-79
2020/12/21 06:10:29;;;;;;;12.13;8.40;;;;;;;;;;5106153;28;20457;-79
2020/12/21 06:12:56;;;;;;;13.67;9.33;;;;;;;;;;5105468;28;20428;-79
2020/12/21 06:15:24;;;;;;;9.30;6.80;;;;;;;;;;5106797;28;20465;-79
2020/12/21 06:17:50;;;;;;;13.87;7.80;;;;;;;;;;5107447;28;20462;-79
2020/12/21 06:20:16;;;;;;;8.40;6.80;;;;;;;;;;5106468;28;20400;-79
2020/12/21 06:22:42;;;;;;;11.57;7.70;;;;;;;;;;5106008;28;20515;-79
2020/12/21 06:25:08;;;;;;;15.50;8.90;;;;;;;;;;5106990;28;20825;-79
2020/12/21 06:27:39;;;;;;;12.23;8.13;;;;;;;;;;5105111;28;20451;-79
2020/12/21 06:30:05;;;;;;;14.80;7.97;;;;;;;;;;5106601;28;20424;-79
2020/12/21 06:32:32;;;;;;;9.63;7.20;;;;;;;;;;5102136;28;20570;-79
2020/12/21 06:34:58;;;;;;;12.53;8.10;;;;;;;;;;5106083;28;20468;-79
2020/12/21 06:37:24;;;;;;;11.93;7.70;;;;;;;;;;5105600;28;20504;-79
2020/12/21 06:39:57;;;;;;;13.70;8.53;;;;;;;;;;5105175;28;20428;-81
2020/12/21 06:42:27;;;;;;;11.53;7.40;;;;;;;;;;5106845;28;20429;-81
2020/12/21 06:44:54;;;;;;;11.40;7.20;;;;;;;;;;5107499;28;20417;-80
2020/12/21 06:47:21;;;;;;;10.10;7.50;;;;;;;;;;5106761;28;20428;-80
2020/12/21 06:49:47;;;;;;;11.30;8.87;;;;;;;;;;5107856;28;20404;-80
2020/12/21 06:52:13;;;;;;;10.87;7.03;;;;;;;;;;5106268;28;20451;-80
2020/12/21 06:54:39;;;;;;;10.30;8.50;;;;;;;;;;5107129;28;20424;-80
2020/12/21 06:57:05;;;;;;;17.70;9.97;;;;;;;;;;5104869;28;20523;-80
2020/12/21 06:59:31;;;;;;;17.60;8.77;;;;;;;;;;5098217;28;20448;-75
2020/12/21 07:01:57;;;;;;;15.33;8.83;;;;;;;;;;5090968;28;20761;-74
2020/12/21 07:04:24;;;;;;;8.97;6.70;;;;;;;;;;5094519;28;20412;-75
2020/12/21 07:06:51;;;;;;;17.90;8.67;;;;;;;;;;5093624;28;20420;-74
2020/12/21 07:09:27;;;;;;;14.47;8.60;;;;;;;;;;5095675;28;20447;-74
2020/12/21 07:11:57;;;;;;;12.47;9.10;;;;;;;;;;5098121;28;20522;-74
2020/12/21 07:14:24;;;;;;;13.17;8.60;;;;;;;;;;5097748;28;20436;-73
2020/12/21 07:17:01;;;;;;;12.90;8.60;;;;;;;;;;5096290;28;20427;-74
2020/12/21 07:19:27;;;;;;;14.23;8.40;;;;;;;;;;5096444;28;20454;-74
2020/12/21 07:21:54;;;;;;;14.67;8.80;;;;;;;;;;5095918;28;20405;-78
2020/12/21 07:24:22;;;;;;;13.13;7.60;;;;;;;;;;5098062;28;20428;-78
2020/12/21 07:26:48;;;;;;;14.30;8.87;;;;;;;;;;5095688;28;20507;-79
2020/12/21 07:29:14;;;;;;;15.27;9.40;;;;;;;;;;5098984;28;20517;-76
2020/12/21 07:31:41;;;;;;;19.33;10.30;;;;;;;;;;5093568;28;20936;-76
2020/12/21 07:34:07;;;;;;;13.40;7.87;;;;;;;;;;5073520;28;20816;-82
2020/12/21 07:36:40;;;;;;;13.40;8.93;;;;;;;;;;5094540;28;20905;-77
2020/12/21 07:39:06;;;;;;;12.30;8.37;;;;;;;;;;5094046;28;20460;-73
2020/12/21 07:41:33;;;;;;;14.73;9.27;;;;;;;;;;5093297;28;20499;-74
2020/12/21 07:44:02;;;;;;;15.03;10.27;;;;;;;;;;5092345;28;20442;-79
2020/12/21 07:46:30;;;;;;;14.47;9.23;;;;;;;;;;5100295;28;20396;-78
2020/12/21 07:48:56;;;;;;;10.13;8.23;;;;;;;;;;5097950;28;20863;-73
2020/12/21 07:51:23;;;;;;;18.90;8.93;;;;;;;;;;5094189;28;20884;-72
2020/12/21 07:53:49;;;;;;;13.53;7.77;;;;;;;;;;5093205;28;20448;-74
2020/12/21 07:56:17;;;;;;;14.77;8.07;;;;;;;;;;5092108;28;20514;-73
2020/12/21 07:58:43;;;;;;;16.80;8.63;;;;;;;;;;5090653;28;20452;-74
2020/12/21 08:01:09;;;;;;;14.33;8.83;;;;;;;;;;5092813;28;20438;-74
2020/12/21 08:03:37;;;;;;;22.17;10.00;;;;;;;;;;5089150;28;20448;-75
2020/12/21 08:06:23;;;;;;;12.40;8.93;;;;;;;;;;5092069;28;20863;-74
2020/12/21 08:08:50;;;;;;;18.80;9.47;;;;;;;;;;5074955;28;20464;-76
2020/12/21 08:11:17;;;;;;;16.97;9.07;;;;;;;;;;5086745;28;20505;-76
2020/12/21 08:13:47;;;;;;;24.90;12.97;;;;;;;;;;5089931;28;20440;-77
2020/12/21 08:16:13;;;;;;;20.87;11.37;;;;;;;;;;5089387;28;20415;-75
2020/12/21 08:18:39;;;;;;;19.23;9.80;;;;;;;;;;5090148;28;20467;-73
2020/12/21 08:21:05;;;;;;;14.23;9.90;;;;;;;;;;5070011;28;21003;-75
2020/12/21 08:23:32;;;;;;;16.00;9.87;;;;;;;;;;5100590;22;20425;-85
2020/12/21 08:25:58;;;;;;;17.60;9.60;;;;;;;;;;5118105;28;20407;-86
2020/12/21 08:28:28;;;;;;;18.93;10.37;;;;;;;;;;5096131;28;20492;-85
2020/12/21 08:31:04;;;;;;;14.33;9.17;;;;;;;;;;5097712;28;20510;-86
2020/12/21 08:33:30;;;;;;;20.83;10.00;;;;;;;;;;5109414;28;20427;-85
2020/12/21 08:35:56;;;;;;;12.90;8.27;;;;;;;;;;5116300;28;20426;-85
2020/12/21 08:38:24;;;;;;;16.43;9.63;;;;;;;;;;5098016;28;20466;-86
2020/12/21 08:40:57;;;;;;;16.03;10.90;;;;;;;;;;5099272;28;20443;-86
2020/12/21 08:43:26;;;;;;;14.70;9.53;;;;;;;;;;5098997;28;20507;-86
2020/12/21 08:46:01;;;;;;;15.33;8.70;;;;;;;;;;5119708;28;20572;-86
2020/12/21 08:48:27;;;;;;;13.53;8.13;;;;;;;;;;5117856;28;20422;-86
2020/12/21 08:50:53;;;;;;;12.80;7.90;;;;;;;;;;5123510;28;20510;-86
2020/12/21 08:53:19;;;;;;;16.03;8.20;;;;;;;;;;5117849;28;20427;-87
2020/12/21 08:55:45;;;;;;;12.07;7.40;;;;;;;;;;5107036;28;20400;-85
2020/12/21 08:58:11;;;;;;;13.43;8.10;;;;;;;;;;5107565;28;20484;-86
2020/12/21 09:00:56;;;;;;;10.53;7.43;;;;;;;;;;5110926;28;20455;-88
2020/12/21 09:03:22;;;;;;;13.53;8.23;;;;;;;;;;5122928;28;20517;-87
2020/12/21 09:05:48;;;;;;;13.73;9.13;;;;;;;;;;5121935;28;20431;-86
2020/12/21 09:08:14;;;;;;;10.57;7.63;;;;;;;;;;5102659;28;20424;-86
2020/12/21 09:10:43;;;;;;;10.03;6.50;;;;;;;;;;5123898;28;20434;-87
2020/12/21 09:13:09;;;;;;;7.77;6.20;;;;;;;;;;5114912;28;20434;-87
2020/12/21 09:15:38;;;;;;;12.40;7.50;;;;;;;;;;5112046;28;20507;-86
2020/12/21 09:18:04;;;;;;;8.23;6.13;;;;;;;;;;5091326;28;20532;-87
2020/12/21 09:20:30;;;;;;;8.27;6.63;;;;;;;;;;5096893;27;20509;-87
2020/12/21 09:23:05;;;;;;;9.50;6.33;;;;;;;;;;5110360;28;20432;-86
2020/12/21 09:25:41;;;;;;;12.00;7.40;;;;;;;;;;5113639;28;20500;-86
2020/12/21 09:28:12;;;;;;;11.93;6.67;;;;;;;;;;5117445;28;20449;-87
2020/12/21 09:33:43;;;;;;;9.60;6.50;;;;;;;;;;5082281;28;20428;-88
2020/12/21 09:36:12;;;;;;;9.37;5.83;;;;;;;;;;5107213;28;20404;-88
2020/12/21 09:41:06;;;;;;;9.07;5.80;;;;;;;;;;5113022;28;20550;-70
2020/12/21 09:43:33;;;;;;;7.73;5.33;;;;;;;;;;5117559;27;20435;-69
2020/12/21 09:45:59;;;;;;;11.40;6.67;;;;;;;;;;5082005;28;20423;-73
2020/12/21 09:48:25;;;;;;;6.20;5.40;;;;;;;;;;5084693;28;20424;-72
2020/12/21 09:50:51;;;;;;;8.83;6.20;;;;;;;;;;5089092;28;20414;-72
2020/12/21 09:53:17;;;;;;;10.87;6.27;;;;;;;;;;5097065;28;20447;-72
2020/12/21 09:55:43;;;;;;;6.70;5.90;;;;;;;;;;5090740;28;20405;-72
2020/12/21 09:58:10;;;;;;;15.87;8.00;;;;;;;;;;5099216;28;20520;-71
2020/12/21 10:00:36;;;;;;;10.90;7.13;;;;;;;;;;5097815;28;20427;-72
2020/12/21 10:03:02;;;;;;;9.40;6.90;;;;;;;;;;5089248;28;20441;-71
2020/12/21 10:05:28;;;;;;;9.97;5.63;;;;;;;;;;5085826;28;20443;-73
2020/12/21 10:07:54;;;;;;;8.77;6.40;;;;;;;;;;5086007;28;20795;-72
2020/12/21 10:10:20;;;;;;;8.90;5.20;;;;;;;;;;5086433;28;20439;-74
2020/12/21 10:12:46;;;;;;;8.10;5.23;;;;;;;;;;5083317;28;20432;-70
2020/12/21 10:15:12;;;;;;;7.80;5.73;;;;;;;;;;5085725;28;20444;-72
2020/12/21 10:17:38;;;;;;;9.90;5.47;;;;;;;;;;5083679;28;20428;-70
2020/12/21 10:20:05;;;;;;;10.77;6.00;;;;;;;;;;5085556;28;20426;-71
2020/12/21 10:22:31;;;;;;;6.83;5.47;;;;;;;;;;5084182;28;20430;-70
2020/12/21 10:24:57;;;;;;;12.20;6.80;;;;;;;;;;5081590;28;20486;-70
2020/12/21 10:27:23;;;;;;;11.80;6.10;;;;;;;;;;5082647;28;20448;-71
2020/12/21 10:29:50;;;;;;;8.80;6.53;;;;;;;;;;5069491;28;20431;-70
2020/12/21 10:32:16;;;;;;;10.50;6.50;;;;;;;;;;5080205;28;20428;-71
2020/12/21 10:34:42;;;;;;;9.07;6.70;;;;;;;;;;5086585;28;20446;-72
2020/12/21 10:37:08;;;;;;;9.73;5.83;;;;;;;;;;5090954;28;20423;-72
2020/12/21 10:39:34;;;;;;;8.30;5.20;;;;;;;;;;5089023;28;20470;-71
2020/12/21 10:42:04;;;;;;;8.40;6.00;;;;;;;;;;5083203;28;20424;-67
2020/12/21 10:44:30;;;;;;;10.00;6.13;;;;;;;;;;5082491;28;21332;-76
2020/12/21 10:46:59;;;;;;;10.07;5.70;;;;;;;;;;5087896;28;20435;-69
2020/12/21 10:49:26;;;;;;;8.23;6.03;;;;;;;;;;5082162;28;20441;-70
2020/12/21 10:51:52;;;;;;;8.03;5.77;;;;;;;;;;5081111;28;20427;-74
2020/12/21 10:54:18;;;;;;;10.13;6.00;;;;;;;;;;5088056;28;20448;-72
2020/12/21 10:56:44;;;;;;;7.90;5.93;;;;;;;;;;5082752;28;20478;-69
2020/12/21 10:59:10;;;;;;;7.47;5.00;;;;;;;;;;5088815;28;20448;-74
2020/12/21 11:01:36;;;;;;;6.83;5.93;;;;;;;;;;5090983;28;20430;-74
2020/12/21 11:04:02;;;;;;;6.20;5.03;;;;;;;;;;5087485;28;20526;-72
2020/12/21 11:06:28;;;;;;;12.73;6.27;;;;;;;;;;5086925;28;20504;-72
2020/12/21 11:08:54;;;;;;;6.90;6.00;;;;;;;;;;5076473;28;20427;-74
2020/12/21 11:11:27;;;;;;;9.93;6.43;;;;;;;;;;5093536;28;20411;-74
2020/12/21 11:13:54;;;;;;;7.03;5.53;;;;;;;;;;5093607;28;20433;-73
2020/12/21 11:16:20;;;;;;;12.23;6.20;;;;;;;;;;5092502;28;20416;-71
2020/12/21 11:18:46;;;;;;;7.80;5.77;;;;;;;;;;5097699;28;20460;-74
2020/12/21 11:21:13;;;;;;;8.93;5.37;;;;;;;;;;5090677;28;20434;-69
2020/12/21 11:23:39;;;;;;;10.87;6.20;;;;;;;;;;5098405;28;20514;-72
2020/12/21 11:26:05;;;;;;;6.77;5.90;;;;;;;;;;5077426;28;20953;-69
2020/12/21 11:28:31;;;;;;;7.90;4.70;;;;;;;;;;5090348;28;20432;-69
2020/12/21 11:30:57;;;;;;;9.27;6.47;;;;;;;;;;5093401;28;20412;-69
2020/12/21 11:33:23;;;;;;;9.30;5.70;;;;;;;;;;5093342;28;20430;-68
2020/12/21 11:35:49;;;;;;;7.63;5.80;;;;;;;;;;5084360;28;21005;-72
2020/12/21 11:38:15;;;;;;;12.40;5.97;;;;;;;;;;5092491;28;20463;-70
2020/12/21 11:40:42;;;;;;;8.07;6.00;;;;;;;;;;5088871;28;20801;-72
2020/12/21 11:43:08;;;;;;;10.50;6.10;;;;;;;;;;5090824;28;20435;-70
2020/12/21 11:45:34;;;;;;;8.70;5.50;;;;;;;;;;5092758;28;20424;-72
2020/12/21 11:48:00;;;;;;;9.70;6.43;;;;;;;;;;5105128;28;20817;-73
2020/12/21 11:50:26;;;;;;;7.67;4.30;;;;;;;;;;5097344;28;20533;-74
2020/12/21 11:52:52;;;;;;;9.40;6.13;;;;;;;;;;5100666;28;20428;-74
2020/12/21 11:55:18;;;;;;;7.57;5.20;;;;;;;;;;5092867;28;20488;-71
2020/12/21 11:57:44;;;;;;;8.40;5.57;;;;;;;;;;5095594;28;20436;-75
2020/12/21 12:00:10;;;;;;;15.40;6.40;;;;;;;;;;5093228;28;20423;-73
2020/12/21 12:02:36;;;;;;;6.80;6.03;;;;;;;;;;5098826;28;20423;-70
2020/12/21 12:05:03;;;;;;;13.30;6.30;;;;;;;;;;5091509;28;20817;-72
2020/12/21 12:07:29;;;;;;;9.13;6.30;;;;;;;;;;5091633;28;20432;-74
2020/12/21 12:09:55;;;;;;;11.17;5.83;;;;;;;;;;5093040;28;20416;-71
2020/12/21 12:12:21;;;;;;;9.43;7.00;;;;;;;;;;5098877;28;20427;-73
2020/12/21 12:14:47;;;;;;;8.13;6.37;;;;;;;;;;5113251;28;20506;-75
2020/12/21 12:17:13;;;;;;;9.27;6.67;;;;;;;;;;5089003;28;20824;-71
2020/12/21 12:19:39;;;;;;;9.13;6.93;;;;;;;;;;5091431;28;20466;-70
2020/12/21 12:22:05;;;;;;;13.10;6.63;;;;;;;;;;5091922;28;20435;-71
2020/12/21 12:24:31;;;;;;;9.43;6.60;;;;;;;;;;5090831;28;20412;-71
2020/12/21 12:26:57;;;;;;;7.60;5.97;;;;;;;;;;5090217;28;20455;-69
2020/12/21 12:29:23;;;;;;;8.53;5.50;;;;;;;;;;5091544;28;20439;-68
2020/12/21 12:31:49;;;;;;;10.30;6.33;;;;;;;;;;5091705;28;20408;-71
2020/12/21 12:34:15;;;;;;;8.33;5.67;;;;;;;;;;5091621;28;20969;-71
2020/12/21 12:36:43;;;;;;;10.40;6.30;;;;;;;;;;5089804;28;20420;-73
2020/12/21 12:39:09;;;;;;;7.40;6.23;;;;;;;;;;5090087;28;20498;-73
2020/12/21 12:41:39;;;;;;;16.13;10.03;;;;;;;;;;5086016;28;20547;-74
2020/12/21 12:44:05;;;;;;;12.47;7.93;;;;;;;;;;5091301;28;20505;-72
2020/12/21 12:46:31;;;;;;;16.30;7.70;;;;;;;;;;5090130;28;20449;-72
2020/12/21 12:48:57;;;;;;;9.03;6.00;;;;;;;;;;5089773;28;20508;-72
2020/12/21 12:51:23;;;;;;;11.23;6.40;;;;;;;;;;5089509;28;20420;-72
2020/12/21 12:53:49;;;;;;;8.77;7.13;;;;;;;;;;5091863;28;20589;-71
2020/12/21 12:56:15;;;;;;;9.20;6.37;;;;;;;;;;5094268;28;20936;-70
2020/12/21 12:58:41;;;;;;;9.83;5.70;;;;;;;;;;5087402;28;20539;-70
2020/12/21 13:01:07;;;;;;;10.67;7.10;;;;;;;;;;5093893;28;20404;-71
2020/12/21 13:03:34;;;;;;;12.00;7.10;;;;;;;;;;5093240;28;20525;-70
2020/12/21 13:06:00;;;;;;;10.77;6.40;;;;;;;;;;5094452;28;20492;-72
2020/12/21 13:08:26;;;;;;;9.30;6.63;;;;;;;;;;5094373;28;20453;-71
2020/12/21 13:10:52;;;;;;;10.80;6.10;;;;;;;;;;5094491;28;20878;-72
2020/12/21 13:13:18;;;;;;;10.87;6.57;;;;;;;;;;5094519;28;20420;-72
2020/12/21 13:15:44;;;;;;;10.40;6.77;;;;;;;;;;5094477;28;20415;-70
2020/12/21 13:18:10;;;;;;;8.27;5.83;;;;;;;;;;5094789;28;20459;-72
2020/12/21 13:20:36;;;;;;;9.33;6.10;;;;;;;;;;5092792;28;20423;-73
2020/12/21 13:23:02;;;;;;;12.03;6.10;;;;;;;;;;5095801;28;20887;-70
2020/12/21 13:25:28;;;;;;;7.47;5.63;;;;;;;;;;5094629;28;20416;-73
2020/12/21 13:27:55;;;;;;;14.33;6.30;;;;;;;;;;5096497;28;20790;-73
2020/12/21 13:30:21;;;;;;;9.90;6.87;;;;;;;;;;5094930;28;20432;-70
2020/12/21 13:32:47;;;;;;;9.87;7.07;;;;;;;;;;5094383;28;20506;-72
2020/12/21 13:35:14;;;;;;;9.30;5.23;;;;;;;;;;5083654;28;20426;-72
2020/12/21 13:37:40;;;;;;;6.70;4.83;;;;;;;;;;5089463;28;20958;-72
2020/12/21 13:40:06;;;;;;;11.37;7.60;;;;;;;;;;5086206;28;20428;-72
2020/12/21 13:42:32;;;;;;;10.17;6.20;;;;;;;;;;5084028;28;20431;-72
2020/12/21 13:44:58;;;;;;;9.40;5.87;;;;;;;;;;5094197;28;20460;-72
2020/12/21 13:47:24;;;;;;;8.17;5.63;;;;;;;;;;5097845;28;20443;-72
2020/12/21 13:49:50;;;;;;;8.33;5.80;;;;;;;;;;5115525;28;20903;-71
2020/12/21 13:52:16;;;;;;;7.23;6.13;;;;;;;;;;5112083;28;20420;-72
2020/12/21 13:54:42;;;;;;;10.30;6.30;;;;;;;;;;5095328;28;20420;-72
2020/12/21 13:57:08;;;;;;;8.80;6.93;;;;;;;;;;5096802;28;20426;-72
2020/12/21 13:59:35;;;;;;;13.53;8.27;;;;;;;;;;5115624;28;20483;-72
2020/12/21 14:02:01;;;;;;;9.67;6.23;;;;;;;;;;5114333;28;20391;-72
2020/12/21 14:04:27;;;;;;;7.70;5.90;;;;;;;;;;5074179;28;20432;-72
2020/12/21 14:06:57;;;;;;;8.63;6.17;;;;;;;;;;5074533;28;20397;-71
2020/12/21 14:09:23;;;;;;;8.27;6.23;;;;;;;;;;5107777;28;20420;-73
2020/12/21 14:11:49;;;;;;;7.70;5.50;;;;;;;;;;5076808;28;20408;-70
2020/12/21 14:14:15;;;;;;;9.27;6.70;;;;;;;;;;5096187;28;20535;-71
2020/12/21 14:16:41;;;;;;;7.67;5.83;;;;;;;;;;5094839;28;20473;-70
2020/12/21 14:19:07;;;;;;;10.53;6.00;;;;;;;;;;5110171;28;20477;-71
2020/12/21 14:21:34;;;;;;;10.40;5.63;;;;;;;;;;5106729;28;20444;-72
2020/12/21 14:24:01;;;;;;;9.60;7.23;;;;;;;;;;5111052;28;20443;-71
2020/12/21 14:26:28;;;;;;;9.97;6.03;;;;;;;;;;5104866;28;20415;-71
2020/12/21 14:28:54;;;;;;;10.20;6.43;;;;;;;;;;5097067;28;20424;-70
2020/12/21 14:31:20;;;;;;;11.93;7.17;;;;;;;;;;5089715;28;20435;-72
2020/12/21 14:33:46;;;;;;;7.70;5.77;;;;;;;;;;5094101;28;20444;-72
2020/12/21 14:36:12;;;;;;;8.93;5.90;;;;;;;;;;5094503;28;20911;-71